createdAt,value
2022-11-10T00:02:21.415Z,65.70
2022-11-10T00:04:52.322Z,67.50
2022-11-10T00:07:26.779Z,66.40
2022-11-10T00:09:58.135Z,65.40
2022-11-10T00:12:28.501Z,66.20
2022-11-10T00:15:16.883Z,66.20
2022-11-10T00:17:47.823Z,66.10
2022-11-10T00:20:18.576Z,65.80
2022-11-10T00:22:49.306Z,66.80
2022-11-10T00:25:20.310Z,65.70
2022-11-10T00:27:52.370Z,65.60
2022-11-10T00:30:23.875Z,65.10
2022-11-10T00:32:54.549Z,66.40
2022-11-10T00:35:25.258Z,65.40
2022-11-10T00:37:55.962Z,64.80
2022-11-10T00:40:27.163Z,65.00
2022-11-10T00:42:58.023Z,64.80
2022-11-10T00:45:28.678Z,65.00
2022-11-10T00:47:59.297Z,65.50
2022-11-10T00:50:29.908Z,64.80
2022-11-10T00:53:00.561Z,65.20
2022-11-10T00:55:31.192Z,64.40
2022-11-10T00:58:03.878Z,63.90
2022-11-10T01:00:34.264Z,63.40
2022-11-10T01:03:05.038Z,64.00
2022-11-10T01:05:39.845Z,62.10
2022-11-10T01:08:13.524Z,63.90
2022-11-10T01:10:44.717Z,63.50
2022-11-10T01:13:21.669Z,63.40
2022-11-10T01:15:54.791Z,63.30
2022-11-10T01:18:25.698Z,63.30
2022-11-10T01:20:56.191Z,63.40
2022-11-10T01:23:26.839Z,62.20
2022-11-10T01:26:10.672Z,62.80
2022-11-10T01:28:41.656Z,64.10
2022-11-10T01:31:15.609Z,63.30
2022-11-10T01:33:46.413Z,61.80
2022-11-10T01:36:19.259Z,61.30
2022-11-10T01:38:50.867Z,61.00
2022-11-10T01:41:22.825Z,60.60
2022-11-10T01:43:54.730Z,60.00
2022-11-10T01:46:25.677Z,60.20
2022-11-10T01:49:07.137Z,60.60
2022-11-10T01:51:46.172Z,61.20
2022-11-10T01:54:24.985Z,62.10
2022-11-10T01:57:05.009Z,62.10
2022-11-10T01:59:41.455Z,61.80
2022-11-10T02:02:50.722Z,61.20
2022-11-10T02:05:22.548Z,58.40
2022-11-10T02:07:54.923Z,60.10
2022-11-10T02:10:25.764Z,61.20
2022-11-10T02:12:56.480Z,60.40
2022-11-10T02:15:27.492Z,61.20
2022-11-10T02:17:58.972Z,61.50
2022-11-10T02:20:29.622Z,61.10
2022-11-10T02:23:01.255Z,61.70
2022-11-10T02:25:35.195Z,61.10
2022-11-10T02:28:05.873Z,60.40
2022-11-10T02:30:36.678Z,60.80
2022-11-10T02:33:07.415Z,60.30
2022-11-10T02:35:38.336Z,59.30
2022-11-10T02:38:08.936Z,60.10
2022-11-10T02:40:39.665Z,60.10
2022-11-10T02:43:13.895Z,59.90
2022-11-10T02:45:47.343Z,57.90
2022-11-10T02:48:18.931Z,58.20
2022-11-10T02:50:51.655Z,57.80
2022-11-10T02:53:22.867Z,59.30
2022-11-10T02:55:53.821Z,58.70
2022-11-10T02:58:24.572Z,59.20
2022-11-10T03:00:54.800Z,60.40
2022-11-10T03:03:26.165Z,59.20
2022-11-10T03:05:57.053Z,60.00
2022-11-10T03:08:27.865Z,59.40
2022-11-10T03:11:00.213Z,58.40
2022-11-10T03:13:51.820Z,58.70
2022-11-10T03:16:23.709Z,59.20
2022-11-10T03:18:54.327Z,58.00
2022-11-10T03:21:26.155Z,57.90
2022-11-10T03:23:56.971Z,58.10
2022-11-10T03:26:27.670Z,60.00
2022-11-10T03:28:58.467Z,56.70
2022-11-10T03:31:30.117Z,58.90
2022-11-10T03:34:01.659Z,59.30
2022-11-10T03:36:32.357Z,58.60
2022-11-10T03:39:03.154Z,59.00
2022-11-10T03:41:34.095Z,58.90
2022-11-10T03:44:05.010Z,57.80
2022-11-10T03:46:36.102Z,58.20
2022-11-10T03:49:07.280Z,60.00
2022-11-10T03:51:38.150Z,58.60
2022-11-10T03:54:09.946Z,58.40
2022-11-10T03:56:40.554Z,57.40
2022-11-10T03:59:11.380Z,58.30
2022-11-10T04:01:43.072Z,59.00
2022-11-10T04:04:32.814Z,59.10
2022-11-10T04:07:21.429Z,60.20
2022-11-10T04:09:52.439Z,57.90
2022-11-10T04:12:40.982Z,60.20
2022-11-10T04:15:32.143Z,59.10
2022-11-10T04:18:22.746Z,60.20
2022-11-10T04:20:59.353Z,59.10
2022-11-10T04:23:38.367Z,59.70
2022-11-10T04:26:32.791Z,57.70
2022-11-10T04:29:05.661Z,57.10
2022-11-10T04:31:39.576Z,58.50
2022-11-10T04:34:17.981Z,58.50
2022-11-10T04:36:48.745Z,58.80
2022-11-10T04:39:20.583Z,57.40
2022-11-10T04:41:51.406Z,58.30
2022-11-10T04:44:22.287Z,58.50
2022-11-10T04:46:52.962Z,60.00
2022-11-10T04:49:24.778Z,59.00
2022-11-10T04:51:55.510Z,58.00
2022-11-10T04:54:26.167Z,58.60
2022-11-10T04:56:57.052Z,58.70
2022-11-10T04:59:27.673Z,57.50
2022-11-10T05:01:58.797Z,59.40
2022-11-10T05:04:29.490Z,59.70
2022-11-10T05:07:00.239Z,60.50
2022-11-10T05:09:31.834Z,60.60
2022-11-10T05:12:02.170Z,60.00
2022-11-10T05:14:32.799Z,60.40
2022-11-10T05:17:03.852Z,58.70
2022-11-10T05:19:36.286Z,57.60
2022-11-10T05:22:09.100Z,60.00
2022-11-10T05:24:40.508Z,60.70
2022-11-10T05:27:11.614Z,60.90
2022-11-10T05:29:42.336Z,60.40
2022-11-10T05:32:13.029Z,60.40
2022-11-10T05:34:44.419Z,60.60
2022-11-10T05:37:15.374Z,62.00
2022-11-10T05:39:46.938Z,62.20
2022-11-10T05:42:17.739Z,60.90
2022-11-10T05:44:48.643Z,61.10
2022-11-10T05:47:19.267Z,59.70
2022-11-10T05:49:50.429Z,59.80
2022-11-10T05:52:21.149Z,62.00
2022-11-10T05:54:51.897Z,60.40
2022-11-10T05:57:22.865Z,61.60
2022-11-10T05:59:53.562Z,62.30
2022-11-10T06:02:24.348Z,61.50
2022-11-10T06:04:56.878Z,63.00
2022-11-10T06:07:27.562Z,62.40
2022-11-10T06:09:59.293Z,61.70
2022-11-10T06:12:32.511Z,61.40
2022-11-10T06:15:04.884Z,61.60
2022-11-10T06:17:36.732Z,61.90
2022-11-10T06:20:07.899Z,62.30
2022-11-10T06:22:38.111Z,61.50
2022-11-10T06:25:09.669Z,62.10
2022-11-10T06:27:40.705Z,61.70
2022-11-10T06:30:12.494Z,62.30
2022-11-10T06:32:49.937Z,62.30
2022-11-10T06:35:20.919Z,62.00
2022-11-10T06:38:27.584Z,63.50
2022-11-10T06:40:58.199Z,64.10
2022-11-10T06:43:29.259Z,63.80
2022-11-10T06:46:00.534Z,63.70
2022-11-10T06:48:31.123Z,63.20
2022-11-10T06:51:05.654Z,63.30
2022-11-10T06:53:35.930Z,63.60
2022-11-10T06:56:07.836Z,64.60
2022-11-10T06:58:38.636Z,64.70
2022-11-10T07:01:09.497Z,64.40
2022-11-10T07:03:58.573Z,63.50
2022-11-10T07:06:31.060Z,62.90
2022-11-10T07:09:01.322Z,63.40
2022-11-10T07:11:31.516Z,64.40
2022-11-10T07:14:02.116Z,64.90
2022-11-10T07:16:32.832Z,63.30
2022-11-10T07:19:03.554Z,63.50
2022-11-10T07:21:34.352Z,64.60
2022-11-10T07:24:05.025Z,63.90
2022-11-10T07:26:36.777Z,64.80
2022-11-10T07:29:07.432Z,64.40
2022-11-10T07:31:38.287Z,64.80
2022-11-10T07:34:09.031Z,65.10
2022-11-10T07:36:39.749Z,65.50
2022-11-10T07:39:10.537Z,65.30
2022-11-10T07:41:41.516Z,65.30
2022-11-10T07:44:12.376Z,66.30
2022-11-10T07:46:43.506Z,67.30
2022-11-10T07:49:14.427Z,68.20
2022-11-10T07:51:46.198Z,68.80
2022-11-10T07:54:18.604Z,68.40
2022-11-10T07:56:49.692Z,68.40
2022-11-10T07:59:21.938Z,68.40
2022-11-10T08:01:52.931Z,68.30
2022-11-10T08:04:23.957Z,68.90
2022-11-10T08:06:56.643Z,70.00
2022-11-10T08:09:27.325Z,70.00
2022-11-10T08:11:58.232Z,69.10
2022-11-10T08:14:29.333Z,68.50
2022-11-10T08:17:01.161Z,69.20
2022-11-10T08:19:33.461Z,68.40
2022-11-10T08:22:08.298Z,68.40
2022-11-10T08:24:39.853Z,68.50
2022-11-10T08:27:10.512Z,67.80
2022-11-10T08:29:41.418Z,69.30
2022-11-10T08:32:13.327Z,69.60
2022-11-10T08:34:46.720Z,68.80
2022-11-10T08:37:17.813Z,68.50
2022-11-10T08:39:48.493Z,67.60
2022-11-10T08:42:20.369Z,68.40
2022-11-10T08:44:51.834Z,68.40
2022-11-10T08:47:22.856Z,68.30
2022-11-10T08:49:53.493Z,68.80
2022-11-10T08:52:24.254Z,69.60
2022-11-10T08:54:55.161Z,69.90
2022-11-10T08:57:28.966Z,69.50
2022-11-10T08:59:59.843Z,69.30
2022-11-10T09:02:31.751Z,69.60
2022-11-10T09:05:02.834Z,69.80
2022-11-10T09:07:34.304Z,70.00
2022-11-10T09:10:08.410Z,70.30
2022-11-10T09:12:39.868Z,70.50
2022-11-10T09:15:11.773Z,70.70
2022-11-10T09:17:43.600Z,70.90
2022-11-10T09:20:15.351Z,71.20
2022-11-10T09:22:46.519Z,71.90
2022-11-10T09:25:17.399Z,72.00
2022-11-10T09:27:50.034Z,72.40
2022-11-10T09:30:22.532Z,73.10
2022-11-10T09:33:03.499Z,73.70
2022-11-10T09:35:34.373Z,73.90
2022-11-10T09:38:05.302Z,75.10
2022-11-10T09:41:09.376Z,74.90
2022-11-10T09:44:02.246Z,75.30
2022-11-10T09:46:44.449Z,75.50
2022-11-10T09:49:39.691Z,76.70
2022-11-10T09:52:13.053Z,76.70
2022-11-10T09:55:23.865Z,76.70
2022-11-10T09:57:59.828Z,77.20
2022-11-10T10:00:34.060Z,79.60
2022-11-10T10:03:10.138Z,78.80
2022-11-10T10:05:56.644Z,79.60
2022-11-10T10:08:43.306Z,80.70
2022-11-10T10:11:17.950Z,80.90
2022-11-10T10:14:13.260Z,80.60
2022-11-10T10:17:06.766Z,80.90
2022-11-10T10:19:50.049Z,82.00
2022-11-10T10:22:29.528Z,83.00
2022-11-10T10:25:04.483Z,82.30
2022-11-10T10:27:37.543Z,82.70
2022-11-10T10:30:20.664Z,82.80
2022-11-10T10:32:53.613Z,83.40
2022-11-10T10:35:24.198Z,83.90
2022-11-10T10:37:59.275Z,84.20
2022-11-10T10:40:29.634Z,84.30
2022-11-10T10:43:01.416Z,85.00
2022-11-10T10:45:33.446Z,85.50
2022-11-10T10:48:06.032Z,86.10
2022-11-10T10:50:44.155Z,86.20
2022-11-10T10:53:20.685Z,86.30
2022-11-10T10:56:06.489Z,86.40
2022-11-10T10:58:52.080Z,86.40
2022-11-10T11:01:36.043Z,86.50
2022-11-10T11:04:31.537Z,86.40
2022-11-10T11:07:05.766Z,86.30
2022-11-10T11:09:46.759Z,86.20
2022-11-10T11:12:30.896Z,86.50
2022-11-10T11:15:30.359Z,87.70
2022-11-10T11:18:05.650Z,86.60
2022-11-10T11:21:02.073Z,87.10
2022-11-10T11:23:47.887Z,87.10
2022-11-10T11:27:02.163Z,87.50
2022-11-10T11:29:50.300Z,87.60
2022-11-10T11:32:47.371Z,88.10
2022-11-10T11:35:35.019Z,87.90
2022-11-10T11:38:24.539Z,88.20
2022-11-10T11:41:20.657Z,88.30
2022-11-10T11:44:11.678Z,88.40
2022-11-10T11:46:49.739Z,89.30
2022-11-10T11:49:29.757Z,89.20
2022-11-10T11:52:18.574Z,89.80
2022-11-10T11:55:10.134Z,89.70
2022-11-10T11:57:48.530Z,90.20
2022-11-10T12:00:23.308Z,90.20
2022-11-10T12:03:25.998Z,90.20
2022-11-10T12:06:21.800Z,90.20
2022-11-10T12:09:00.512Z,90.00
2022-11-10T12:11:50.272Z,89.90
2022-11-10T12:14:22.263Z,90.20
2022-11-10T12:17:13.622Z,90.40
2022-11-10T12:20:05.044Z,90.20
2022-11-10T12:22:52.004Z,90.50
2022-11-10T12:25:22.630Z,90.60
2022-11-10T12:27:59.625Z,90.60
2022-11-10T12:30:33.052Z,90.60
2022-11-10T12:33:46.351Z,90.80
2022-11-10T12:36:22.323Z,91.00
2022-11-10T12:39:06.976Z,90.80
2022-11-10T12:41:51.249Z,91.00
2022-11-10T12:44:31.161Z,91.00
2022-11-10T12:47:05.270Z,91.10
2022-11-10T12:49:43.870Z,90.80
2022-11-10T12:52:21.139Z,90.80
2022-11-10T12:54:52.748Z,91.10
2022-11-10T12:57:30.575Z,91.20
2022-11-10T13:00:19.354Z,90.80
2022-11-10T13:02:57.221Z,90.50
2022-11-10T13:05:32.167Z,90.40
2022-11-10T13:08:29.079Z,90.90
2022-11-10T13:11:08.130Z,90.70
2022-11-10T13:14:03.468Z,90.90
2022-11-10T13:16:42.881Z,91.20
2022-11-10T13:19:35.623Z,91.10
2022-11-10T13:22:11.776Z,91.30
2022-11-10T13:24:46.108Z,91.40
2022-11-10T13:27:45.308Z,91.10
2022-11-10T13:30:43.124Z,91.50
2022-11-10T13:33:43.352Z,91.40
2022-11-10T13:36:34.052Z,91.70
2022-11-10T13:39:30.934Z,92.00
2022-11-10T13:42:10.419Z,91.70
2022-11-10T13:44:46.399Z,91.50
2022-11-10T13:47:49.090Z,91.90
2022-11-10T13:50:40.796Z,92.00
2022-11-10T13:53:47.679Z,92.20
2022-11-10T13:56:47.929Z,92.10
2022-11-10T13:59:27.690Z,92.20
2022-11-10T14:02:38.175Z,92.40
2022-11-10T14:05:11.155Z,92.20
2022-11-10T14:07:46.392Z,92.00
2022-11-10T14:10:22.452Z,92.30
2022-11-10T14:13:00.165Z,92.30
2022-11-10T14:15:46.118Z,92.80
2022-11-10T14:18:30.486Z,92.60
2022-11-10T14:21:03.828Z,92.70
2022-11-10T14:23:53.010Z,92.60
2022-11-10T14:26:46.042Z,92.60
2022-11-10T14:29:43.858Z,92.70
2022-11-10T14:32:27.109Z,92.40
2022-11-10T14:34:59.259Z,92.70
2022-11-10T14:37:31.945Z,92.70
2022-11-10T14:40:04.905Z,93.00
2022-11-10T14:42:37.234Z,92.90
2022-11-10T14:45:23.904Z,92.90
2022-11-10T14:48:03.766Z,93.10
2022-11-10T14:50:37.537Z,93.10
2022-11-10T14:53:12.197Z,93.20
2022-11-10T14:55:51.894Z,93.30
2022-11-10T14:58:40.084Z,93.20
2022-11-10T15:01:25.642Z,93.60
2022-11-10T15:03:57.870Z,93.30
2022-11-10T15:06:29.818Z,93.20
2022-11-10T15:09:02.031Z,93.40
2022-11-10T15:11:44.456Z,93.60
2022-11-10T15:14:42.018Z,93.80
2022-11-10T15:17:17.629Z,93.90
2022-11-10T15:19:51.886Z,93.80
2022-11-10T15:22:32.680Z,94.00
2022-11-10T15:25:10.346Z,93.90
2022-11-10T15:27:45.118Z,94.00
2022-11-10T15:30:26.199Z,94.00
2022-11-10T15:33:01.897Z,93.80
2022-11-10T15:35:36.013Z,94.00
2022-11-10T15:38:20.679Z,93.90
2022-11-10T15:40:53.873Z,93.90
2022-11-10T15:43:25.271Z,93.90
2022-11-10T15:46:04.796Z,93.90
2022-11-10T15:48:47.085Z,94.20
2022-11-10T15:51:25.594Z,94.40
2022-11-10T15:53:57.693Z,94.30
2022-11-10T15:56:28.699Z,94.00
2022-11-10T15:59:02.442Z,94.30
2022-11-10T16:01:35.304Z,94.40
2022-11-10T16:04:05.898Z,94.50
2022-11-10T16:06:36.943Z,94.60
2022-11-10T16:09:08.601Z,94.50
2022-11-10T16:11:40.197Z,94.40
2022-11-10T16:14:16.974Z,94.30
2022-11-10T16:16:47.474Z,94.20
2022-11-10T16:19:18.193Z,94.30
2022-11-10T16:21:49.261Z,94.30
2022-11-10T16:24:20.231Z,94.60
2022-11-10T16:26:50.940Z,94.60
2022-11-10T16:29:23.199Z,94.40
2022-11-10T16:31:55.301Z,94.30
2022-11-10T16:34:26.483Z,94.50
2022-11-10T16:36:57.221Z,94.80
2022-11-10T16:39:29.622Z,94.60
2022-11-10T16:42:01.556Z,94.70
2022-11-10T16:44:33.083Z,94.60
2022-11-10T16:47:04.997Z,94.60
2022-11-10T16:49:38.081Z,94.50
2022-11-10T16:52:17.597Z,94.80
2022-11-10T16:54:48.765Z,94.40
2022-11-10T16:57:22.569Z,94.60
2022-11-10T16:59:54.235Z,94.60
2022-11-10T17:02:40.678Z,94.40
2022-11-10T17:05:21.361Z,94.60
2022-11-10T17:07:51.940Z,94.80
2022-11-10T17:10:23.942Z,94.50
2022-11-10T17:12:54.831Z,94.90
2022-11-10T17:15:25.521Z,94.80
2022-11-10T17:18:02.175Z,94.50
2022-11-10T17:20:45.118Z,94.70
2022-11-10T17:23:18.333Z,94.70
2022-11-10T17:25:49.412Z,94.70
2022-11-10T17:28:22.370Z,94.70
2022-11-10T17:30:55.673Z,94.90
2022-11-10T17:33:26.607Z,95.10
2022-11-10T17:35:59.390Z,94.90
2022-11-10T17:38:36.438Z,94.80
2022-11-10T17:41:06.831Z,94.80
2022-11-10T17:43:38.593Z,94.60
2022-11-10T17:46:12.199Z,94.70
2022-11-10T17:48:43.348Z,95.10
2022-11-10T17:51:25.535Z,94.90
2022-11-10T17:53:57.267Z,94.80
2022-11-10T17:56:28.034Z,94.90
2022-11-10T17:58:58.560Z,94.80
2022-11-10T18:01:29.391Z,94.80
2022-11-10T18:04:00.177Z,95.00
2022-11-10T18:06:31.768Z,94.80
2022-11-10T18:09:03.021Z,94.90
2022-11-10T18:11:33.714Z,94.80
2022-11-10T18:14:06.953Z,94.90
2022-11-10T18:16:37.682Z,95.30
2022-11-10T18:19:09.527Z,95.10
2022-11-10T18:21:40.250Z,95.00
2022-11-10T18:24:11.109Z,95.10
2022-11-10T18:26:42.352Z,95.30
2022-11-10T18:29:14.914Z,95.40
2022-11-10T18:31:46.016Z,95.50
2022-11-10T18:34:17.246Z,95.60
2022-11-10T18:36:47.967Z,95.50
2022-11-10T18:39:19.061Z,95.60
2022-11-10T18:41:52.595Z,95.80
2022-11-10T18:44:23.999Z,95.80
2022-11-10T18:46:55.546Z,95.60
2022-11-10T18:49:26.529Z,95.60
2022-11-10T18:51:57.696Z,95.20
2022-11-10T18:54:29.004Z,95.40
2022-11-10T18:56:59.877Z,95.30
2022-11-10T18:59:30.626Z,95.50
2022-11-10T19:02:02.603Z,95.30
2022-11-10T19:04:33.853Z,95.90
2022-11-10T19:07:05.660Z,95.50
2022-11-10T19:09:36.815Z,95.40
2022-11-10T19:12:09.856Z,95.50
2022-11-10T19:14:41.151Z,95.80
2022-11-10T19:17:12.076Z,95.80
2022-11-10T19:19:43.029Z,96.00
2022-11-10T19:22:13.817Z,95.40
2022-11-10T19:25:06.444Z,95.70
2022-11-10T19:27:36.494Z,95.90
2022-11-10T19:30:08.193Z,96.00
2022-11-10T19:32:38.940Z,96.00
2022-11-10T19:35:11.174Z,95.90
2022-11-10T19:37:43.188Z,96.00
2022-11-10T19:40:14.722Z,96.10
2022-11-10T19:42:45.434Z,96.30
2022-11-10T19:45:18.784Z,95.90
2022-11-10T19:47:51.757Z,95.70
2022-11-10T19:50:23.790Z,95.90
2022-11-10T19:52:54.728Z,95.80
2022-11-10T19:55:26.577Z,95.70
2022-11-10T19:57:57.255Z,95.80
2022-11-10T20:00:28.579Z,95.80
2022-11-10T20:02:59.252Z,95.70
2022-11-10T20:05:29.930Z,95.40
2022-11-10T20:08:17.955Z,94.90
2022-11-10T20:10:49.224Z,94.30
2022-11-10T20:13:20.408Z,94.10
2022-11-10T20:15:51.231Z,93.60
2022-11-10T20:18:22.243Z,94.00
2022-11-10T20:20:53.094Z,94.00
2022-11-10T20:23:24.217Z,94.00
2022-11-10T20:26:16.190Z,93.30
2022-11-10T20:28:48.648Z,93.20
2022-11-10T20:31:23.298Z,93.00
2022-11-10T20:33:57.288Z,92.50
2022-11-10T20:36:30.473Z,92.40
2022-11-10T20:39:02.583Z,92.60
2022-11-10T20:41:35.106Z,92.60
2022-11-10T20:44:05.886Z,92.00
2022-11-10T20:46:54.011Z,92.00
2022-11-10T20:49:25.555Z,92.30
2022-11-10T20:52:01.819Z,92.40
2022-11-10T20:54:32.585Z,91.40
2022-11-10T20:57:03.760Z,91.00
2022-11-10T20:59:35.232Z,91.20
2022-11-10T21:02:06.377Z,90.90
2022-11-10T21:04:41.849Z,90.80
2022-11-10T21:07:13.486Z,90.80
2022-11-10T21:09:44.551Z,90.90
2022-11-10T21:12:34.494Z,90.90
2022-11-10T21:15:06.055Z,90.30
2022-11-10T21:17:42.940Z,90.60
2022-11-10T21:20:15.949Z,90.30
2022-11-10T21:22:46.600Z,90.60
2022-11-10T21:25:19.680Z,90.30
2022-11-10T21:27:50.353Z,90.40
2022-11-10T21:30:25.064Z,89.80
2022-11-10T21:32:55.940Z,89.60
2022-11-10T21:35:28.290Z,89.80
2022-11-10T21:37:58.905Z,90.20
2022-11-10T21:40:30.874Z,89.20
2022-11-10T21:43:01.973Z,88.40
2022-11-10T21:45:32.905Z,87.80
2022-11-10T21:48:07.049Z,88.30
2022-11-10T21:50:37.733Z,88.30
2022-11-10T21:53:11.370Z,87.60
2022-11-10T21:55:42.106Z,86.90
2022-11-10T21:58:13.830Z,86.50
2022-11-10T22:00:44.626Z,86.50
2022-11-10T22:03:15.190Z,86.50
2022-11-10T22:05:46.787Z,83.90
2022-11-10T22:08:21.895Z,84.50
2022-11-10T22:11:10.504Z,84.20
2022-11-10T22:13:59.350Z,82.50
2022-11-10T22:16:54.994Z,81.90
2022-11-10T22:19:25.841Z,81.90
2022-11-10T22:21:59.519Z,80.40
2022-11-10T22:24:33.138Z,79.30
2022-11-10T22:27:06.495Z,78.20
2022-11-10T22:29:37.624Z,78.20
2022-11-10T22:32:08.477Z,76.20
2022-11-10T22:34:39.107Z,76.70
2022-11-10T22:37:10.853Z,76.50
2022-11-10T22:40:00.331Z,76.50
2022-11-10T22:42:50.354Z,76.40
2022-11-10T22:45:21.081Z,76.60
2022-11-10T22:48:09.059Z,76.80
2022-11-10T22:50:40.059Z,76.10
2022-11-10T22:53:10.781Z,76.50
2022-11-10T22:55:41.760Z,76.80
2022-11-10T22:58:12.321Z,77.20
2022-11-10T23:00:43.827Z,75.80
2022-11-10T23:03:16.578Z,76.00
2022-11-10T23:05:49.351Z,76.30
2022-11-10T23:08:27.531Z,76.80
2022-11-10T23:11:06.357Z,76.60
2022-11-10T23:13:38.629Z,75.60
2022-11-10T23:16:16.075Z,77.10
2022-11-10T23:18:48.284Z,75.80
2022-11-10T23:21:21.587Z,76.80
2022-11-10T23:23:53.721Z,73.90
2022-11-10T23:26:27.012Z,74.60
2022-11-10T23:28:58.153Z,76.20
2022-11-10T23:31:30.144Z,77.20
2022-11-10T23:34:01.414Z,77.00
2022-11-10T23:36:32.065Z,77.00
2022-11-10T23:39:03.402Z,76.70
2022-11-10T23:41:34.488Z,77.90
2022-11-10T23:44:06.319Z,78.60
2022-11-10T23:46:38.350Z,78.50
2022-11-10T23:49:10.635Z,79.20
2022-11-10T23:51:41.659Z,79.90
2022-11-10T23:54:12.613Z,79.20
2022-11-10T23:56:43.299Z,79.70
2022-11-10T23:59:14.522Z,80.20
